Falls International Airport International Falls US
ICAO: KINL
IATA: INL
Category: Medium
Scheduled Services: Yes

Elevation: 1185 ft
TransAlt. 18000 ft.

Airport Communications:
ASOS:120
MINNEAPOLIS CNTR:120.9
PRINCETON RDO:123.6
CTAF/UNICOM:122.8

KINL Zoom In..

Runways:

(A) RW 04 length 2999 ft width 75 ft
---- / hdg 39

(B) RW 13 length 7400 ft width 150 ft
ILS 109.10 / hdg 133

(C) RW 22 length 2999 ft width 75 ft
---- / hdg 219

(D) RW 31 length 7400 ft width 150 ft
ILS 111.95 / hdg 313

Location; KINL
Day. 10 / Time. 07.55 Zulu
* Altimeter: 30.02
* Temperature: -06° c. -21.2°f.
* Wind from: 290° Speed 04 kn.
Dewpoint: -09° c.
Visibility: 10 Statute Miles.
Clouds: Clear (automated report).

KINL 100755Z AUTO 29004KT 10SM CLR M06/M09 A3002 RMK AO2 SLP184 T10561089


Wind From 290°
Speed 04 kn.

 
 
jpsmedia worldairports.se 2020   terms of use